Time;durP1;ratioP1;P1;durP2;ratioP2;P2;SDS_P1;SDS_P2;PMS_P1;PMS_P2;Temp;Humidity;BMP_temperature;BMP_pressure;BME280_temperature;BME280_humidity;BME280_pressure;Samples;Min_cycle;Max_cycle;Signal;HPM_P1;HPM_P2
2022/05/09 00:01:13;;;;;;;;;;;11.90;99.90;;;;;;5071047;28;19924;-73
2022/05/09 00:03:40;;;;;;;;;;;11.80;99.90;;;;;;5070644;28;19924;-73
2022/05/09 00:06:08;;;;;;;;;;;11.80;99.90;;;;;;5070844;28;20019;-73
2022/05/09 00:08:39;;;;;;;;;;;11.60;99.90;;;;;;5071108;28;19974;-72
2022/05/09 00:11:07;;;;;;;;;;;11.60;99.90;;;;;;5070712;28;19924;-72
2022/05/09 00:13:35;;;;;;;;;;;11.50;99.90;;;;;;5070998;28;19970;-73
2022/05/09 00:16:02;;;;;;;;;;;11.40;99.90;;;;;;5070622;28;19970;-74
2022/05/09 00:18:29;;;;;;;;;;;11.40;99.90;;;;;;5070683;28;19929;-73
2022/05/09 00:20:55;;;;;;;;;;;11.40;99.90;;;;;;5070379;28;20358;-72
2022/05/09 00:23:24;;;;;;;;;;;11.40;99.90;;;;;;5070679;28;20346;-72
2022/05/09 00:25:50;;;;;;;;;;;11.40;99.90;;;;;;5087127;28;19924;-74
2022/05/09 00:28:18;;;;;;;;;;;11.40;99.90;;;;;;5070403;28;20018;-72
2022/05/09 00:30:44;;;;;;;;;;;11.40;99.90;;;;;;5070173;28;19932;-72
2022/05/09 00:33:14;;;;;;;;;;;11.40;99.90;;;;;;5070578;28;19929;-73
2022/05/09 00:35:44;;;;;;;;;;;11.30;99.90;;;;;;5069638;28;19978;-73
2022/05/09 00:38:10;;;;;;;;;;;11.30;99.90;;;;;;5070211;28;19944;-73
2022/05/09 00:41:28;;;;;;;;;;;11.30;99.90;;;;;;5070266;28;19935;-73
2022/05/09 00:43:30;;;;;;;;;;;11.20;99.90;;;;;;5070162;28;19968;-72
2022/05/09 00:45:58;;;;;;;;;;;11.20;99.90;;;;;;5070097;28;20003;-73
2022/05/09 00:48:25;;;;;;;;;;;11.10;99.90;;;;;;5070441;28;20394;-73
2022/05/09 00:50:52;;;;;;;;;;;11.10;99.90;;;;;;5069882;28;20007;-72
2022/05/09 00:53:19;;;;;;;;;;;11.10;99.90;;;;;;5070522;28;20364;-73
2022/05/09 00:55:50;;;;;;;;;;;11.00;99.90;;;;;;5069666;28;19924;-72
2022/05/09 00:58:21;;;;;;;;;;;10.90;99.90;;;;;;5069975;28;19970;-72
2022/05/09 01:00:50;;;;;;;;;;;10.90;99.90;;;;;;5069840;28;19924;-73
2022/05/09 01:03:18;;;;;;;;;;;10.80;99.90;;;;;;5069814;28;19978;-76
2022/05/09 01:05:50;;;;;;;;;;;10.70;99.90;;;;;;5069499;28;19924;-73
2022/05/09 01:08:17;;;;;;;;;;;10.60;99.90;;;;;;5069840;28;20466;-74
2022/05/09 01:10:43;;;;;;;;;;;10.60;99.90;;;;;;5069131;28;19924;-72
2022/05/09 01:13:13;;;;;;;;;;;10.50;99.90;;;;;;5069940;28;20276;-72
2022/05/09 01:15:40;;;;;;;;;;;10.50;99.90;;;;;;5069299;28;19929;-73
2022/05/09 01:18:08;;;;;;;;;;;10.40;99.90;;;;;;5069633;28;19928;-74
2022/05/09 01:20:36;;;;;;;;;;;10.40;99.90;;;;;;5069481;28;19925;-72
2022/05/09 01:23:07;;;;;;;;;;;10.40;99.90;;;;;;5069866;28;19933;-73
2022/05/09 01:25:34;;;;;;;;;;;10.30;99.90;;;;;;5069290;28;19928;-73
2022/05/09 01:28:01;;;;;;;;;;;10.30;99.90;;;;;;5069657;28;20019;-73
2022/05/09 01:30:33;;;;;;;;;;;10.30;99.90;;;;;;5069339;28;19924;-74
2022/05/09 01:33:01;;;;;;;;;;;10.30;99.90;;;;;;5069746;28;20383;-73
2022/05/09 01:35:33;;;;;;;;;;;10.30;99.90;;;;;;5069461;28;19924;-74
2022/05/09 01:38:04;;;;;;;;;;;10.20;99.90;;;;;;5069695;28;19928;-75
2022/05/09 01:40:32;;;;;;;;;;;10.20;99.90;;;;;;5069449;28;19974;-73
2022/05/09 01:42:59;;;;;;;;;;;10.10;99.90;;;;;;5069639;28;19931;-73
2022/05/09 01:45:26;;;;;;;;;;;10.10;99.90;;;;;;5069234;28;20395;-73
2022/05/09 01:50:37;;;;;;;;;;;10.00;99.90;;;;;;5071926;28;20409;-73
2022/05/09 01:53:04;;;;;;;;;;;10.00;99.90;;;;;;5077001;28;20353;-72
2022/05/09 01:55:32;;;;;;;;;;;10.00;99.90;;;;;;5073438;28;19935;-73
2022/05/09 01:57:59;;;;;;;;;;;9.90;99.90;;;;;;5073505;28;19931;-73
2022/05/09 02:00:26;;;;;;;;;;;9.90;99.90;;;;;;5073353;28;19924;-73
2022/05/09 02:02:52;;;;;;;;;;;9.80;99.90;;;;;;5074752;28;20027;-73
2022/05/09 02:05:19;;;;;;;;;;;9.90;99.90;;;;;;5073020;28;19932;-73
2022/05/09 02:07:46;;;;;;;;;;;9.80;99.90;;;;;;5073566;28;19974;-74
2022/05/09 02:10:12;;;;;;;;;;;9.80;99.90;;;;;;5073221;28;19939;-73
2022/05/09 02:12:41;;;;;;;;;;;9.80;99.90;;;;;;5073288;28;19928;-73
2022/05/09 02:15:08;;;;;;;;;;;9.80;99.90;;;;;;5072824;28;19978;-73
2022/05/09 02:17:36;;;;;;;;;;;9.70;99.90;;;;;;5071584;28;20484;-74
2022/05/09 02:20:03;;;;;;;;;;;9.70;99.90;;;;;;5073002;28;19932;-73
2022/05/09 02:22:30;;;;;;;;;;;9.60;99.90;;;;;;5073253;28;20308;-73
2022/05/09 02:24:57;;;;;;;;;;;9.60;99.90;;;;;;5072588;28;19924;-73
2022/05/09 02:27:25;;;;;;;;;;;9.50;99.90;;;;;;5072883;28;20399;-73
2022/05/09 02:29:53;;;;;;;;;;;9.40;99.90;;;;;;5072612;28;19925;-73
2022/05/09 02:32:20;;;;;;;;;;;9.40;99.90;;;;;;5072988;28;19970;-72
2022/05/09 02:34:47;;;;;;;;;;;9.30;99.90;;;;;;5072461;28;20384;-72
2022/05/09 02:37:13;;;;;;;;;;;9.20;99.90;;;;;;5072699;28;19932;-73
2022/05/09 02:39:40;;;;;;;;;;;9.20;99.90;;;;;;5072623;28;19928;-73
2022/05/09 02:42:07;;;;;;;;;;;9.10;99.90;;;;;;5072494;28;19928;-73
2022/05/09 02:44:33;;;;;;;;;;;9.10;99.90;;;;;;5072275;28;19963;-74
2022/05/09 02:47:02;;;;;;;;;;;9.00;99.90;;;;;;5072532;28;20054;-73
2022/05/09 02:49:28;;;;;;;;;;;8.90;99.90;;;;;;5072278;28;20403;-73
2022/05/09 02:51:55;;;;;;;;;;;8.90;99.90;;;;;;5072638;28;19925;-73
2022/05/09 02:54:22;;;;;;;;;;;8.80;99.90;;;;;;5072646;28;19939;-73
2022/05/09 02:56:49;;;;;;;;;;;8.80;99.90;;;;;;5072291;28;19979;-73
2022/05/09 02:59:15;;;;;;;;;;;8.70;99.90;;;;;;5071481;28;19928;-73
2022/05/09 03:01:42;;;;;;;;;;;8.70;99.90;;;;;;5072464;28;19930;-72
2022/05/09 03:06:59;;;;;;;;;;;8.70;99.90;;;;;;5067399;28;20059;-73
2022/05/09 03:09:25;;;;;;;;;;;8.70;99.90;;;;;;5071904;28;19931;-73
2022/05/09 03:11:52;;;;;;;;;;;8.70;99.90;;;;;;5071835;28;19929;-72
2022/05/09 03:14:19;;;;;;;;;;;8.70;99.90;;;;;;5071628;28;20350;-72
2022/05/09 03:16:46;;;;;;;;;;;8.70;99.90;;;;;;5071792;28;19924;-73
2022/05/09 03:19:14;;;;;;;;;;;8.70;99.90;;;;;;5071707;28;19925;-73
2022/05/09 03:21:41;;;;;;;;;;;8.70;99.90;;;;;;5072010;28;20403;-73
2022/05/09 03:24:08;;;;;;;;;;;8.60;99.90;;;;;;5071628;28;19929;-73
2022/05/09 03:26:35;;;;;;;;;;;8.60;99.90;;;;;;5071393;28;20948;-74
2022/05/09 03:29:01;;;;;;;;;;;8.60;99.90;;;;;;5071486;28;19932;-73
2022/05/09 03:31:29;;;;;;;;;;;8.60;99.90;;;;;;5071764;28;19928;-74
2022/05/09 03:33:57;;;;;;;;;;;8.50;99.90;;;;;;5071177;28;19974;-73
2022/05/09 03:36:25;;;;;;;;;;;8.50;99.90;;;;;;5071396;28;20346;-73
2022/05/09 03:38:53;;;;;;;;;;;8.40;99.90;;;;;;5071053;28;19960;-73
2022/05/09 03:41:20;;;;;;;;;;;8.50;99.90;;;;;;5071627;28;19928;-71
2022/05/09 03:43:47;;;;;;;;;;;8.50;99.90;;;;;;5071422;28;19925;-74
2022/05/09 03:46:14;;;;;;;;;;;8.50;99.90;;;;;;5071216;28;20372;-72
2022/05/09 03:48:41;;;;;;;;;;;8.50;99.90;;;;;;5070779;28;19936;-73
2022/05/09 03:51:07;;;;;;;;;;;8.60;99.90;;;;;;5070901;28;19928;-74
2022/05/09 03:53:36;;;;;;;;;;;8.50;99.90;;;;;;5070794;28;19925;-74
2022/05/09 03:56:02;;;;;;;;;;;8.50;99.90;;;;;;5070923;28;19931;-73
2022/05/09 03:58:29;;;;;;;;;;;8.60;99.90;;;;;;5070935;28;19924;-73
2022/05/09 04:00:56;;;;;;;;;;;8.60;99.90;;;;;;5070655;28;19925;-73
2022/05/09 04:03:23;;;;;;;;;;;8.60;99.90;;;;;;5071040;28;19974;-73
2022/05/09 04:05:50;;;;;;;;;;;8.60;99.90;;;;;;5070762;28;20413;-72
2022/05/09 04:08:18;;;;;;;;;;;8.60;99.90;;;;;;5071151;28;19924;-72
2022/05/09 04:10:46;;;;;;;;;;;8.60;99.90;;;;;;5069970;28;20006;-73
2022/05/09 04:13:13;;;;;;;;;;;8.60;99.90;;;;;;5070828;28;19929;-72
2022/05/09 04:18:26;;;;;;;;;;;8.60;99.90;;;;;;5070772;28;19924;-73
2022/05/09 04:20:53;;;;;;;;;;;8.60;99.90;;;;;;5070680;28;19924;-74
2022/05/09 04:23:20;;;;;;;;;;;8.60;99.90;;;;;;5070727;28;19924;-73
2022/05/09 04:25:49;;;;;;;;;;;8.60;99.90;;;;;;5070440;28;19932;-73
2022/05/09 04:28:17;;;;;;;;;;;8.60;99.90;;;;;;5070639;28;19973;-72
2022/05/09 04:30:44;;;;;;;;;;;8.60;99.90;;;;;;5070580;28;19970;-72
2022/05/09 04:33:11;;;;;;;;;;;8.60;99.90;;;;;;5070622;28;19929;-73
2022/05/09 04:35:39;;;;;;;;;;;8.60;99.90;;;;;;5070402;28;20326;-73
2022/05/09 04:38:06;;;;;;;;;;;8.60;99.90;;;;;;5070494;28;19924;-74
2022/05/09 04:40:35;;;;;;;;;;;8.70;99.90;;;;;;5070293;28;19924;-72
2022/05/09 04:43:03;;;;;;;;;;;8.80;99.90;;;;;;5070491;28;19928;-73
2022/05/09 04:45:31;;;;;;;;;;;8.80;99.90;;;;;;5070063;28;19925;-73
2022/05/09 04:47:57;;;;;;;;;;;8.80;99.90;;;;;;5070358;28;19924;-73
2022/05/09 04:50:25;;;;;;;;;;;8.80;99.90;;;;;;5070309;28;19978;-74
2022/05/09 04:52:52;;;;;;;;;;;8.80;99.90;;;;;;5070620;28;19929;-73
2022/05/09 04:55:19;;;;;;;;;;;8.90;99.90;;;;;;5069927;28;19924;-72
2022/05/09 04:57:48;;;;;;;;;;;8.90;99.90;;;;;;5070343;28;19947;-73
2022/05/09 05:00:25;;;;;;;;;;;8.90;99.90;;;;;;5069780;28;19947;-74
2022/05/09 05:02:52;;;;;;;;;;;8.90;99.90;;;;;;5065217;28;19924;-73
2022/05/09 05:05:18;;;;;;;;;;;9.00;99.90;;;;;;5089780;28;19924;-73
2022/05/09 05:07:45;;;;;;;;;;;9.00;99.90;;;;;;5070053;28;20027;-74
2022/05/09 05:10:12;;;;;;;;;;;9.10;99.90;;;;;;5069961;28;19925;-73
2022/05/09 05:12:39;;;;;;;;;;;9.10;99.90;;;;;;5069903;28;19924;-73
2022/05/09 05:15:07;;;;;;;;;;;9.20;99.90;;;;;;5069901;28;19925;-73
2022/05/09 05:17:36;;;;;;;;;;;9.20;99.90;;;;;;5104025;28;19928;-73
2022/05/09 05:20:04;;;;;;;;;;;9.30;99.90;;;;;;5069697;28;20285;-73
2022/05/09 05:22:35;;;;;;;;;;;9.30;99.90;;;;;;5069509;28;19924;-72
2022/05/09 05:25:02;;;;;;;;;;;9.40;99.90;;;;;;5069395;28;20038;-72
2022/05/09 05:27:29;;;;;;;;;;;9.40;99.90;;;;;;5069991;28;19928;-73
2022/05/09 05:29:58;;;;;;;;;;;9.50;99.90;;;;;;5069568;28;19929;-73
2022/05/09 05:32:25;;;;;;;;;;;9.60;99.90;;;;;;5069723;28;20378;-73
2022/05/09 05:34:53;;;;;;;;;;;9.60;99.90;;;;;;5069553;28;20117;-73
2022/05/09 05:37:20;;;;;;;;;;;9.60;99.90;;;;;;5069336;28;20448;-72
2022/05/09 05:39:48;;;;;;;;;;;9.70;99.90;;;;;;5069563;28;19993;-77
2022/05/09 05:42:16;;;;;;;;;;;9.70;99.90;;;;;;5103642;28;19925;-73
2022/05/09 05:44:43;;;;;;;;;;;9.80;99.90;;;;;;5069181;28;19924;-74
2022/05/09 05:47:11;;;;;;;;;;;9.90;99.90;;;;;;5103309;28;20334;-73
2022/05/09 05:49:38;;;;;;;;;;;9.90;99.90;;;;;;5103115;28;19925;-74
2022/05/09 05:52:08;;;;;;;;;;;10.00;99.90;;;;;;5069382;28;19932;-73
2022/05/09 05:54:36;;;;;;;;;;;10.00;99.90;;;;;;5103255;28;19978;-73
2022/05/09 05:57:04;;;;;;;;;;;10.10;99.90;;;;;;5103607;28;19935;-73
2022/05/09 05:59:31;;;;;;;;;;;10.20;99.90;;;;;;5065871;28;20461;-73
2022/05/09 06:01:59;;;;;;;;;;;10.30;99.90;;;;;;5065232;28;19932;-73
2022/05/09 06:04:27;;;;;;;;;;;10.40;99.90;;;;;;5069061;28;19928;-73
2022/05/09 06:06:55;;;;;;;;;;;10.50;99.90;;;;;;5069352;28;19956;-73
2022/05/09 06:09:23;;;;;;;;;;;10.60;99.90;;;;;;5069241;28;19975;-73
2022/05/09 06:11:50;;;;;;;;;;;10.80;99.90;;;;;;5069632;28;19932;-75
2022/05/09 06:14:17;;;;;;;;;;;10.80;99.90;;;;;;5068820;28;20346;-74
2022/05/09 06:16:45;;;;;;;;;;;10.90;99.90;;;;;;5069297;28;20446;-73
2022/05/09 06:19:11;;;;;;;;;;;11.00;99.90;;;;;;5068525;28;19939;-74
2022/05/09 06:21:38;;;;;;;;;;;11.00;99.90;;;;;;5103219;28;19928;-74
2022/05/09 06:24:05;;;;;;;;;;;11.20;99.90;;;;;;5068930;28;20498;-74
2022/05/09 06:26:34;;;;;;;;;;;11.30;99.90;;;;;;5068869;28;19982;-74
2022/05/09 06:29:06;;;;;;;;;;;11.40;99.90;;;;;;5068030;28;19924;-73
2022/05/09 06:31:33;;;;;;;;;;;11.50;99.90;;;;;;5078141;28;19925;-73
2022/05/09 06:34:00;;;;;;;;;;;11.60;99.90;;;;;;5068613;28;19929;-73
2022/05/09 06:36:27;;;;;;;;;;;11.70;99.90;;;;;;5070383;28;19924;-74
2022/05/09 06:38:54;;;;;;;;;;;11.80;99.90;;;;;;5069844;28;19935;-74
2022/05/09 06:41:21;;;;;;;;;;;11.90;99.90;;;;;;5072611;28;20296;-73
2022/05/09 06:43:49;;;;;;;;;;;12.00;99.90;;;;;;5072195;28;19928;-73
2022/05/09 06:46:16;;;;;;;;;;;12.10;99.90;;;;;;5068947;28;20380;-72
2022/05/09 06:48:43;;;;;;;;;;;12.20;99.90;;;;;;5067580;28;20308;-73
2022/05/09 06:51:10;;;;;;;;;;;12.30;99.90;;;;;;5069695;28;19947;-74
2022/05/09 06:53:37;;;;;;;;;;;12.40;99.90;;;;;;5072207;28;20024;-74
2022/05/09 06:56:05;;;;;;;;;;;12.50;99.90;;;;;;5071908;28;20356;-73
2022/05/09 06:58:32;;;;;;;;;;;12.60;99.90;;;;;;5071589;28;19932;-73
2022/05/09 07:01:01;;;;;;;;;;;12.70;99.90;;;;;;5071990;28;20350;-74
2022/05/09 07:03:30;;;;;;;;;;;12.80;99.90;;;;;;5071993;28;20027;-73
2022/05/09 07:05:56;;;;;;;;;;;13.00;99.90;;;;;;5072407;28;19924;-74
2022/05/09 07:08:25;;;;;;;;;;;13.00;99.90;;;;;;5071827;28;20430;-73
2022/05/09 07:10:52;;;;;;;;;;;13.20;99.90;;;;;;5071846;28;19925;-73
2022/05/09 07:13:19;;;;;;;;;;;13.30;99.90;;;;;;5072032;28;20023;-74
2022/05/09 07:15:45;;;;;;;;;;;13.40;99.90;;;;;;5105652;28;20342;-73
2022/05/09 07:18:14;;;;;;;;;;;13.60;99.90;;;;;;5071933;28;19931;-73
2022/05/09 07:20:40;;;;;;;;;;;13.70;99.90;;;;;;5071775;28;19931;-73
2022/05/09 07:23:09;;;;;;;;;;;13.90;99.90;;;;;;5105735;28;20293;-74
2022/05/09 07:25:36;;;;;;;;;;;14.00;99.90;;;;;;5105546;28;20003;-74
2022/05/09 07:28:03;;;;;;;;;;;14.00;99.90;;;;;;5071686;28;19970;-73
2022/05/09 07:30:30;;;;;;;;;;;14.10;99.90;;;;;;5071489;28;19924;-73
2022/05/09 07:32:57;;;;;;;;;;;14.20;99.90;;;;;;5071666;28;19924;-74
2022/05/09 07:35:26;;;;;;;;;;;14.30;99.90;;;;;;5071217;28;19999;-73
2022/05/09 07:37:53;;;;;;;;;;;14.40;99.90;;;;;;5105756;28;19924;-74
2022/05/09 07:40:20;;;;;;;;;;;14.50;99.90;;;;;;5071695;28;19925;-73
2022/05/09 07:42:48;;;;;;;;;;;14.60;99.90;;;;;;5105751;28;20403;-74
2022/05/09 07:45:17;;;;;;;;;;;14.70;99.90;;;;;;5105052;28;19928;-74
2022/05/09 07:47:44;;;;;;;;;;;14.80;99.90;;;;;;5071705;28;19925;-74
2022/05/09 07:50:11;;;;;;;;;;;14.90;99.90;;;;;;5065798;28;19931;-74
2022/05/09 07:52:42;;;;;;;;;;;15.00;99.90;;;;;;5071112;28;19948;-73
2022/05/09 07:55:10;;;;;;;;;;;15.10;99.90;;;;;;5071144;28;19925;-73
2022/05/09 07:57:37;;;;;;;;;;;15.20;99.90;;;;;;5071409;28;19928;-74
2022/05/09 08:00:05;;;;;;;;;;;15.30;99.90;;;;;;5071050;28;19924;-73
2022/05/09 08:02:32;;;;;;;;;;;15.40;99.90;;;;;;5071214;28;19924;-74
2022/05/09 08:04:59;;;;;;;;;;;15.40;99.90;;;;;;5070665;28;19964;-74
2022/05/09 08:07:26;;;;;;;;;;;15.50;99.90;;;;;;5071081;28;19928;-74
2022/05/09 08:09:56;;;;;;;;;;;15.60;99.90;;;;;;5070927;28;19932;-73
2022/05/09 08:12:23;;;;;;;;;;;15.70;99.90;;;;;;5071086;28;19924;-73
2022/05/09 08:14:50;;;;;;;;;;;15.70;99.90;;;;;;5070765;28;19925;-73
2022/05/09 08:17:18;;;;;;;;;;;15.80;99.90;;;;;;5070962;28;19930;-73
2022/05/09 08:19:47;;;;;;;;;;;15.90;99.90;;;;;;5070401;28;19928;-73
2022/05/09 08:22:13;;;;;;;;;;;16.00;99.90;;;;;;5070849;28;19932;-74
2022/05/09 08:24:41;;;;;;;;;;;16.10;99.90;;;;;;5070445;28;19928;-74
2022/05/09 08:27:09;;;;;;;;;;;16.20;99.90;;;;;;5070842;28;19924;-74
2022/05/09 08:29:36;;;;;;;;;;;16.30;99.90;;;;;;5070309;28;20313;-74
2022/05/09 08:32:03;;;;;;;;;;;16.50;99.90;;;;;;5070603;28;19932;-74
2022/05/09 08:34:30;;;;;;;;;;;16.60;99.90;;;;;;5070482;28;20346;-73
2022/05/09 08:36:57;;;;;;;;;;;16.80;99.90;;;;;;5070680;28;19925;-74
2022/05/09 08:39:26;;;;;;;;;;;16.90;99.90;;;;;;5070129;28;19924;-75
2022/05/09 08:41:57;;;;;;;;;;;16.90;99.90;;;;;;5070500;28;19967;-73
2022/05/09 08:44:38;;;;;;;;;;;17.00;99.90;;;;;;5070036;28;19925;-74
2022/05/09 08:47:17;;;;;;;;;;;17.00;99.90;;;;;;5070536;28;19932;-73
2022/05/09 08:49:46;;;;;;;;;;;17.10;99.90;;;;;;5070446;28;19972;-73
2022/05/09 08:52:18;;;;;;;;;;;17.10;99.90;;;;;;5070725;28;19928;-73
2022/05/09 08:54:45;;;;;;;;;;;17.20;99.90;;;;;;5070307;28;19935;-73
2022/05/09 08:57:13;;;;;;;;;;;17.30;99.90;;;;;;5070346;28;19931;-74
2022/05/09 08:59:46;;;;;;;;;;;17.40;99.90;;;;;;5070134;28;19924;-73
2022/05/09 09:02:14;;;;;;;;;;;17.50;99.90;;;;;;5070334;28;19947;-75
2022/05/09 09:04:46;;;;;;;;;;;17.50;99.90;;;;;;5070091;28;19932;-74
2022/05/09 09:07:28;;;;;;;;;;;17.50;99.90;;;;;;5070425;28;19936;-74
2022/05/09 09:10:02;;;;;;;;;;;17.60;99.90;;;;;;5069730;28;20319;-74
2022/05/09 09:12:34;;;;;;;;;;;17.80;99.90;;;;;;5050048;28;19932;-74
2022/05/09 09:15:08;;;;;;;;;;;17.90;99.90;;;;;;5066366;28;19925;-73
2022/05/09 09:17:41;;;;;;;;;;;18.00;99.90;;;;;;5066272;28;19924;-74
2022/05/09 09:20:15;;;;;;;;;;;18.10;99.90;;;;;;5066300;28;19994;-73
2022/05/09 09:22:52;;;;;;;;;;;18.00;99.90;;;;;;5066871;28;19937;-73
2022/05/09 09:25:27;;;;;;;;;;;18.00;99.90;;;;;;5075517;28;19931;-71
2022/05/09 09:27:54;;;;;;;;;;;18.10;99.90;;;;;;5070634;28;20352;-73
2022/05/09 09:30:24;;;;;;;;;;;18.30;99.90;;;;;;5077070;28;20007;-73
2022/05/09 09:32:54;;;;;;;;;;;18.40;99.90;;;;;;5070027;28;19928;-73
2022/05/09 09:35:25;;;;;;;;;;;18.60;99.90;;;;;;5068767;28;19932;-73
2022/05/09 09:37:53;;;;;;;;;;;18.70;99.90;;;;;;5069216;28;19939;-73
2022/05/09 09:40:20;;;;;;;;;;;18.90;99.90;;;;;;5068820;28;20019;-73
2022/05/09 09:42:47;;;;;;;;;;;18.90;99.90;;;;;;5068634;28;19935;-74
2022/05/09 09:45:26;;;;;;;;;;;18.90;99.90;;;;;;5068044;28;19939;-74
2022/05/09 09:48:06;;;;;;;;;;;18.90;99.90;;;;;;5063093;28;19929;-75
2022/05/09 09:50:33;;;;;;;;;;;19.00;99.90;;;;;;5084838;28;20019;-73
2022/05/09 09:53:00;;;;;;;;;;;19.30;99.90;;;;;;5069321;28;19928;-74
2022/05/09 09:55:35;;;;;;;;;;;19.40;99.90;;;;;;5058376;28;19931;-74
2022/05/09 09:58:17;;;;;;;;;;;19.40;99.90;;;;;;5049532;28;19924;-73
2022/05/09 10:00:44;;;;;;;;;;;19.50;99.90;;;;;;5048882;28;20370;-73
2022/05/09 10:03:20;;;;;;;;;;;19.60;99.90;;;;;;5049474;28;19928;-74
2022/05/09 10:05:47;;;;;;;;;;;19.80;99.90;;;;;;5049070;28;19937;-75
2022/05/09 10:08:17;;;;;;;;;;;20.00;99.90;;;;;;5078886;28;19932;-73
2022/05/09 10:10:54;;;;;;;;;;;20.10;99.90;;;;;;5071864;28;19989;-73
2022/05/09 10:13:22;;;;;;;;;;;20.20;99.90;;;;;;5073199;28;19925;-73
2022/05/09 10:16:01;;;;;;;;;;;20.30;99.90;;;;;;5073030;28;20298;-73
2022/05/09 10:18:31;;;;;;;;;;;20.30;99.90;;;;;;5072978;28;19929;-73
2022/05/09 10:21:00;;;;;;;;;;;20.40;99.90;;;;;;5071121;28;19924;-73
2022/05/09 10:26:20;;;;;;;;;;;20.70;99.90;;;;;;5072615;28;19959;-74
2022/05/09 10:28:48;;;;;;;;;;;20.80;99.90;;;;;;5072950;28;19928;-72
2022/05/09 10:31:16;;;;;;;;;;;;;;;;;;5072406;28;19924;-73
2022/05/09 10:33:47;;;;;;;;;;;20.90;99.90;;;;;;5072644;28;19924;-73
2022/05/09 10:36:17;;;;;;;;;;;20.90;99.90;;;;;;5072913;28;19924;-74
2022/05/09 10:38:47;;;;;;;;;;;21.00;99.90;;;;;;5072575;28;19967;-72
2022/05/09 10:41:17;;;;;;;;;;;21.20;99.90;;;;;;5072411;28;19970;-74
2022/05/09 10:43:45;;;;;;;;;;;21.30;99.90;;;;;;5072494;28;19932;-73
2022/05/09 10:46:13;;;;;;;;;;;21.60;99.90;;;;;;5072435;28;19925;-74
2022/05/09 10:48:43;;;;;;;;;;;21.80;99.90;;;;;;5072829;28;19924;-72
2022/05/09 10:51:12;;;;;;;;;;;22.00;99.90;;;;;;5071945;28;19924;-73
2022/05/09 10:53:43;;;;;;;;;;;22.20;99.90;;;;;;5089177;28;19970;-74
2022/05/09 10:56:13;;;;;;;;;;;22.40;99.90;;;;;;5071945;28;19928;-73
2022/05/09 10:58:47;;;;;;;;;;;22.60;99.90;;;;;;5071331;28;19956;-73
2022/05/09 11:01:18;;;;;;;;;;;22.60;99.90;;;;;;5069477;28;19931;-73
2022/05/09 11:03:45;;;;;;;;;;;22.80;99.90;;;;;;5071072;28;19929;-73
2022/05/09 11:06:22;;;;;;;;;;;22.80;99.90;;;;;;5071539;28;19924;-74
2022/05/09 11:08:59;;;;;;;;;;;22.90;99.90;;;;;;5071105;28;20400;-71
2022/05/09 11:11:29;;;;;;;;;;;23.00;99.90;;;;;;5084024;28;19924;-73
2022/05/09 11:13:59;;;;;;;;;;;23.20;99.90;;;;;;5071879;28;19925;-73
2022/05/09 11:16:30;;;;;;;;;;;23.10;99.90;;;;;;5071986;28;19928;-73
2022/05/09 11:19:02;;;;;;;;;;;23.20;99.90;;;;;;5088575;28;19932;-73
2022/05/09 11:21:38;;;;;;;;;;;23.40;99.90;;;;;;5071092;28;19928;-74
2022/05/09 11:24:07;;;;;;;;;;;23.60;99.90;;;;;;5071741;28;19928;-73
2022/05/09 11:26:40;;;;;;;;;;;23.70;99.90;;;;;;5077828;22;20526;-71
2022/05/09 11:29:22;;;;;;;;;;;23.70;99.90;;;;;;5050808;28;19975;-71
2022/05/09 11:32:03;;;;;;;;;;;23.80;99.90;;;;;;5068101;28;20403;-73
2022/05/09 11:34:36;;;;;;;;;;;23.70;99.90;;;;;;5051326;28;19964;-73
2022/05/09 11:37:08;;;;;;;;;;;23.90;99.90;;;;;;5031652;28;19965;-73
2022/05/09 11:39:40;;;;;;;;;;;24.30;99.90;;;;;;5032305;28;19968;-73
2022/05/09 11:44:54;;;;;;;;;;;28.90;99.90;;;;;;5032918;28;19968;-73
2022/05/09 11:47:30;;;;;;;;;;;31.60;99.90;;;;;;5031704;28;19964;-74
2022/05/09 11:49:57;;;;;;;;;;;;;;;;;;5031219;28;19925;-74
2022/05/09 11:52:27;;;;;;;;;;;35.90;99.90;;;;;;5033157;28;19929;-74
2022/05/09 11:54:54;;;;;;;;;;;37.50;99.90;;;;;;5030973;28;19979;-74
2022/05/09 11:57:25;;;;;;;;;;;38.00;99.90;;;;;;5031519;28;19929;-74
2022/05/09 11:59:54;;;;;;;;;;;38.50;99.90;;;;;;5031270;28;19925;-74
2022/05/09 12:02:36;;;;;;;;;;;38.80;99.90;;;;;;5031264;28;19932;-74
2022/05/09 12:05:23;;;;;;;;;;;39.70;99.90;;;;;;5030116;28;19925;-74
2022/05/09 12:07:56;;;;;;;;;;;40.80;99.90;;;;;;5031053;28;19925;-74
2022/05/09 12:10:28;;;;;;;;;;;41.40;99.90;;;;;;5032765;28;19934;-74
2022/05/09 12:12:56;;;;;;;;;;;41.70;99.90;;;;;;5029436;28;20427;-74
2022/05/09 12:15:41;;;;;;;;;;;42.00;99.90;;;;;;5040701;28;19925;-73
2022/05/09 12:18:12;;;;;;;;;;;41.60;99.90;;;;;;5012027;28;19956;-73
2022/05/09 12:21:12;;;;;;;;;;;42.10;99.90;;;;;;5012134;28;20285;-73
2022/05/09 12:24:08;;;;;;;;;;;42.70;99.90;;;;;;4971368;28;19926;-73
2022/05/09 12:26:38;;;;;;;;;;;43.00;99.90;;;;;;4955237;28;19937;-73
2022/05/09 12:29:09;;;;;;;;;;;43.50;99.90;;;;;;4991203;28;19929;-75
2022/05/09 12:31:40;;;;;;;;;;;44.10;99.90;;;;;;4997432;28;21799;-75
2022/05/09 12:34:12;;;;;;;;;;;44.10;98.80;;;;;;5039575;28;19925;-76
2022/05/09 12:36:39;;;;;;;;;;;43.90;99.60;;;;;;5049105;28;19982;-74
2022/05/09 12:39:08;;;;;;;;;;;41.80;99.90;;;;;;5038454;28;20344;-72
2022/05/09 12:41:42;;;;;;;;;;;42.60;99.60;;;;;;5051545;28;19928;-72
2022/05/09 12:44:10;;;;;;;;;;;43.00;98.30;;;;;;5051130;28;19929;-75
2022/05/09 12:46:40;;;;;;;;;;;42.50;99.40;;;;;;5051489;28;19962;-75
2022/05/09 12:49:08;;;;;;;;;;;42.20;99.90;;;;;;5040839;28;19924;-73
2022/05/09 12:51:40;;;;;;;;;;;41.90;97.90;;;;;;5042860;28;19928;-75
2022/05/09 12:54:08;;;;;;;;;;;42.00;97.90;;;;;;5051481;28;19979;-72
2022/05/09 12:56:37;;;;;;;;;;;41.90;99.90;;;;;;5051069;28;19931;-72
2022/05/09 12:59:06;;;;;;;;;;;41.00;98.40;;;;;;5045088;28;19924;-73
2022/05/09 13:01:34;;;;;;;;;;;40.80;98.80;;;;;;5042569;28;19925;-74
2022/05/09 13:04:02;;;;;;;;;;;40.50;98.00;;;;;;5050738;28;19924;-72
2022/05/09 13:06:29;;;;;;;;;;;40.50;96.60;;;;;;5050825;28;20319;-74
2022/05/09 13:08:56;;;;;;;;;;;40.30;97.20;;;;;;5050692;28;19925;-72
2022/05/09 13:11:24;;;;;;;;;;;39.40;96.20;;;;;;5050487;28;19925;-73
2022/05/09 13:14:09;;;;;;;;;;;39.00;97.90;;;;;;5050451;28;19966;-72
2022/05/09 13:16:39;;;;;;;;;;;38.30;97.80;;;;;;5049004;28;19924;-72
2022/05/09 13:19:13;;;;;;;;;;;36.60;98.00;;;;;;5034325;28;19932;-72
2022/05/09 13:21:41;;;;;;;;;;;36.60;99.20;;;;;;5027798;28;19925;-72
2022/05/09 13:24:09;;;;;;;;;;;36.10;99.90;;;;;;5038040;28;19979;-72
2022/05/09 13:26:46;;;;;;;;;;;36.40;99.90;;;;;;5049806;28;20487;-73
2022/05/09 13:29:22;;;;;;;;;;;37.10;98.00;;;;;;5049375;28;20331;-72
2022/05/09 13:31:51;;;;;;;;;;;37.10;98.90;;;;;;5049115;28;19932;-73
2022/05/09 13:34:20;;;;;;;;;;;37.10;96.40;;;;;;5049092;28;19925;-73
2022/05/09 13:36:47;;;;;;;;;;;37.10;97.40;;;;;;5049550;28;19963;-73
2022/05/09 13:39:28;;;;;;;;;;;38.00;96.80;;;;;;5049335;28;20347;-73
2022/05/09 13:41:56;;;;;;;;;;;38.60;97.70;;;;;;5043770;28;19925;-73
2022/05/09 13:44:23;;;;;;;;;;;38.40;98.90;;;;;;5039869;28;19929;-74
2022/05/09 13:46:52;;;;;;;;;;;38.70;98.30;;;;;;5040120;28;19925;-73
2022/05/09 13:49:20;;;;;;;;;;;39.30;96.90;;;;;;5038719;28;19929;-73
2022/05/09 13:51:56;;;;;;;;;;;39.10;98.20;;;;;;5041504;28;19982;-73
2022/05/09 13:54:26;;;;;;;;;;;38.70;98.00;;;;;;5034183;28;19925;-73
2022/05/09 13:57:08;;;;;;;;;;;38.80;97.60;;;;;;5033664;28;19925;-73
2022/05/09 13:59:37;;;;;;;;;;;38.30;96.90;;;;;;5033431;28;19929;-73
2022/05/09 14:02:05;;;;;;;;;;;38.40;98.20;;;;;;5033507;28;20020;-73
2022/05/09 14:04:33;;;;;;;;;;;39.40;97.90;;;;;;5032875;28;20392;-73
2022/05/09 14:07:37;;;;;;;;;;;40.00;97.50;;;;;;5033506;28;20419;-74
2022/05/09 14:09:48;;;;;;;;;;;;;;;;;;5040996;28;19925;-73
2022/05/09 14:12:16;;;;;;;;;;;40.40;96.80;;;;;;5037424;28;20399;-73
2022/05/09 14:14:44;;;;;;;;;;;40.50;99.10;;;;;;5033374;28;19929;-73
2022/05/09 14:17:16;;;;;;;;;;;40.40;97.10;;;;;;5033232;28;19929;-73
2022/05/09 14:19:43;;;;;;;;;;;40.70;98.60;;;;;;5033296;28;19929;-73
2022/05/09 14:22:13;;;;;;;;;;;40.50;98.00;;;;;;5033179;28;19975;-74
2022/05/09 14:29:36;;;;;;;;;;;40.50;98.10;;;;;;5032807;28;19925;-73
2022/05/09 14:30:15;;;;;;;;;;;41.00;98.40;;;;;;5032829;28;20303;-73
2022/05/09 14:32:46;;;;;;;;;;;40.70;99.50;;;;;;5033162;28;19925;-73
2022/05/09 14:35:13;;;;;;;;;;;40.10;97.90;;;;;;5032770;28;20346;-74
2022/05/09 14:37:51;;;;;;;;;;;38.70;98.30;;;;;;5033155;28;19925;-74
2022/05/09 14:40:19;;;;;;;;;;;38.00;97.30;;;;;;5032689;28;19929;-74
2022/05/09 14:42:51;;;;;;;;;;;37.40;98.60;;;;;;5033152;28;19991;-74
2022/05/09 14:45:18;;;;;;;;;;;36.20;97.50;;;;;;5032915;28;19976;-73
2022/05/09 14:47:49;;;;;;;;;;;35.40;98.70;;;;;;5033049;28;19984;-73
2022/05/09 14:50:18;;;;;;;;;;;34.80;98.80;;;;;;5032629;28;19979;-74